Accueil
METAR-TAF:

METAR-TAF

Aéroports :

Augsbourg, Allemagne

latitude: 48-26N, longitude: 010-56E, altitude: 461 m

Observation

Le bulletin a été fait il y a 39 minutes, à 07:50 UTC
Vent 3 kt de sud/sud-est
Température -3°C
Humidité 93%
Pression 1020 hPa
Visibilité: 3700 m
Nuages épars à une hauteur de 100 ft
brume

METAR: EDMA 060750Z 16003KT 3700 BR SCT001 M03/M04 Q1020

Heure: 09:29 (08:29 UTC)

Prévision

Le bulletin a été fait il y a 1 heure et 22 minutes, à 07:07 UTC
Prévision valable du 06 à 08 UTC au 06 à 15 UTC
Vent 6 kt de sud-ouest
Visibilité: 6000 m
Nuages fragmentés à une hauteur de 400 ft
Temporairement
du 06 à 08 UTC au 06 à 10 UTC
Visibilité: 3500 m
brume
Evoluant progressivement
du 06 à 08 UTC au 06 à 11 UTC
Nuages épars à une hauteur de 600 ft

TAF: EDMA 060707Z 0608/0615 22006KT 6000 BKN004 TEMPO 0608/0610 3500 BR BECMG 0608/0611 SCT006

Observations et prévisions météorologiques de plus de 4000 aéroports (messages METAR et TAF).

Les stations disponibles sont représentées par des disques jaunes et rouges sur la carte.

Passer la souris dessus pour voir le nom de la station.

Cliquer dessus pour voir les observations et prévisions météorologiques.

Pour changer de carte: cliquez sur les boutons verts avec une croix noire pour zoomer, sur le bouton vert avec un tiret pour effectuer un zoom arrière, ou sur les flèches vertes pour les cartes adjacentes.


METAR-TAF: